createdAt,value
2022-12-01T00:01:23.458Z,100154.97
2022-12-01T00:03:51.635Z,100156.06
2022-12-01T00:06:21.427Z,100153.16
2022-12-01T00:09:08.802Z,100148.88
2022-12-01T00:11:38.483Z,100146.44
2022-12-01T00:14:07.284Z,100151.91
2022-12-01T00:16:36.611Z,100140.50
2022-12-01T00:19:04.969Z,100133.84
2022-12-01T00:21:32.896Z,100142.31
2022-12-01T00:24:01.105Z,100129.03
2022-12-01T00:26:29.178Z,100148.56
2022-12-01T00:28:58.746Z,100146.06
2022-12-01T00:31:27.513Z,100141.75
2022-12-01T00:33:57.026Z,100144.28
2022-12-01T00:36:25.282Z,100143.16
2022-12-01T00:38:54.854Z,100140.44
2022-12-01T00:41:23.844Z,100140.72
2022-12-01T00:43:51.949Z,100144.91
2022-12-01T00:46:20.126Z,100139.34
2022-12-01T00:48:48.227Z,100132.53
2022-12-01T00:51:17.724Z,100134.66
2022-12-01T00:53:46.067Z,100132.75
2022-12-01T00:56:14.946Z,100141.09
2022-12-01T00:58:42.955Z,100130.56
2022-12-01T01:01:10.900Z,100109.63
2022-12-01T01:03:38.865Z,100127.34
2022-12-01T01:06:08.482Z,100113.41
2022-12-01T01:08:38.332Z,100122.81
2022-12-01T01:11:07.179Z,100094.31
2022-12-01T01:13:35.771Z,100099.94
2022-12-01T01:16:05.734Z,100112.06
2022-12-01T01:18:34.308Z,100105.06
2022-12-01T01:21:05.249Z,100099.88
2022-12-01T01:23:33.217Z,100103.03
2022-12-01T01:26:05.378Z,100109.34
2022-12-01T01:28:33.434Z,100108.59
2022-12-01T01:31:05.577Z,100077.69
2022-12-01T01:33:33.530Z,100087.34
2022-12-01T01:36:02.118Z,100090.25
2022-12-01T01:38:30.840Z,100085.66
2022-12-01T01:40:59.224Z,100090.88
2022-12-01T01:43:43.993Z,100089.34
2022-12-01T01:46:14.715Z,100086.44
2022-12-01T01:48:48.092Z,100083.84
2022-12-01T01:51:18.256Z,100090.00
2022-12-01T01:53:47.766Z,100086.59
2022-12-01T01:56:15.975Z,100086.75
2022-12-01T01:58:45.754Z,100088.13
2022-12-01T02:01:13.971Z,100089.78
2022-12-01T02:03:43.472Z,100091.63
2022-12-01T02:06:12.553Z,100079.72
2022-12-01T02:08:40.522Z,100094.38
2022-12-01T02:11:29.820Z,100094.97
2022-12-01T02:14:09.910Z,100087.84
2022-12-01T02:16:45.630Z,100086.53
2022-12-01T02:19:42.302Z,100084.41
2022-12-01T02:22:20.287Z,100084.63
2022-12-01T02:25:15.599Z,100075.63
2022-12-01T02:28:07.311Z,100074.22
2022-12-01T02:30:42.083Z,100069.13
2022-12-01T02:33:17.781Z,100068.53
2022-12-01T02:35:51.255Z,100067.47
2022-12-01T02:38:26.565Z,100063.34
2022-12-01T02:41:00.810Z,100024.97
2022-12-01T02:43:33.344Z,100052.88
2022-12-01T02:46:10.451Z,100059.69
2022-12-01T02:48:43.116Z,100058.66
2022-12-01T02:51:15.843Z,100056.97
2022-12-01T02:53:43.845Z,100054.56
2022-12-01T02:56:13.293Z,100060.50
2022-12-01T02:58:41.211Z,100051.03
2022-12-01T03:01:25.558Z,100049.38
2022-12-01T03:04:06.832Z,100047.13
2022-12-01T03:06:46.004Z,100054.22
2022-12-01T03:09:25.407Z,100048.53
2022-12-01T03:12:03.037Z,100050.13
2022-12-01T03:14:40.397Z,100058.00
2022-12-01T03:17:16.018Z,100051.34
2022-12-01T03:19:47.799Z,100056.53
2022-12-01T03:22:20.451Z,100052.81
2022-12-01T03:24:50.547Z,100052.47
2022-12-01T03:27:23.006Z,100055.63
2022-12-01T03:29:54.688Z,100053.78
2022-12-01T03:32:28.766Z,100053.94
2022-12-01T03:35:00.554Z,100045.25
2022-12-01T03:37:37.748Z,100051.78
2022-12-01T03:40:09.805Z,100050.44
2022-12-01T03:42:41.507Z,100052.28
2022-12-01T03:45:16.283Z,100058.31
2022-12-01T03:47:46.360Z,100056.09
2022-12-01T03:50:15.046Z,100054.81
2022-12-01T03:52:50.494Z,100058.97
2022-12-01T03:55:24.361Z,100040.53
2022-12-01T03:57:57.920Z,100036.28
2022-12-01T04:00:26.841Z,100058.22
2022-12-01T04:02:58.430Z,100056.72
2022-12-01T04:05:27.774Z,100055.47
2022-12-01T04:07:55.952Z,100046.25
2022-12-01T04:10:23.958Z,100042.97
2022-12-01T04:12:50.904Z,100053.03
2022-12-01T04:15:19.023Z,100047.94
2022-12-01T04:17:46.949Z,100053.34
2022-12-01T04:20:17.267Z,100055.78
2022-12-01T04:22:45.699Z,100061.25
2022-12-01T04:25:13.894Z,100054.81
2022-12-01T04:27:41.987Z,100057.47
2022-12-01T04:30:11.039Z,100051.59
2022-12-01T04:32:39.987Z,100055.19
2022-12-01T04:35:08.871Z,100054.09
2022-12-01T04:37:38.460Z,100060.16
2022-12-01T04:40:08.163Z,100057.09
2022-12-01T04:42:36.111Z,100063.19
2022-12-01T04:45:04.608Z,100028.28
2022-12-01T04:47:32.493Z,100057.78
2022-12-01T04:50:00.575Z,100064.81
2022-12-01T04:52:34.840Z,100065.47
2022-12-01T04:55:04.814Z,100061.97
2022-12-01T04:57:32.775Z,100057.41
2022-12-01T05:00:00.709Z,100063.03
2022-12-01T05:02:28.764Z,100066.31
2022-12-01T05:04:56.711Z,100064.97
2022-12-01T05:07:24.703Z,100068.31
2022-12-01T05:09:52.604Z,100065.03
2022-12-01T05:12:21.997Z,100068.69
2022-12-01T05:14:50.327Z,100072.22
2022-12-01T05:17:18.221Z,100068.22
2022-12-01T05:20:02.827Z,100069.69
2022-12-01T05:22:57.245Z,100068.97
2022-12-01T05:25:18.908Z,100054.44
2022-12-01T05:27:48.186Z,100065.03
2022-12-01T05:30:16.260Z,100066.25
2022-12-01T05:32:44.173Z,100051.06
2022-12-01T05:35:12.323Z,100065.19
2022-12-01T05:37:40.264Z,100063.72
2022-12-01T05:40:09.368Z,100062.66
2022-12-01T05:42:37.285Z,100069.78
2022-12-01T05:45:07.720Z,100068.88
2022-12-01T05:47:35.709Z,100062.28
2022-12-01T05:50:05.703Z,100059.28
2022-12-01T05:52:35.178Z,100061.19
2022-12-01T05:55:03.235Z,100068.38
2022-12-01T05:57:31.666Z,100059.06
2022-12-01T05:59:59.597Z,100057.25
2022-12-01T06:02:28.826Z,100066.38
2022-12-01T06:04:56.815Z,100068.13
2022-12-01T06:07:26.071Z,100072.25
2022-12-01T06:09:54.123Z,100052.91
2022-12-01T06:12:22.149Z,100076.00
2022-12-01T06:14:50.145Z,100072.34
2022-12-01T06:17:18.134Z,100066.88
2022-12-01T06:19:48.274Z,100073.56
2022-12-01T06:22:16.407Z,100077.84
2022-12-01T06:24:44.308Z,100086.47
2022-12-01T06:27:12.212Z,100077.47
2022-12-01T06:29:42.224Z,100082.38
2022-12-01T06:32:16.442Z,100081.66
2022-12-01T06:34:44.736Z,100084.41
2022-12-01T06:37:15.583Z,100086.03
2022-12-01T06:39:43.726Z,100090.91
2022-12-01T06:42:12.114Z,100091.06
2022-12-01T06:44:40.013Z,100086.84
2022-12-01T06:47:08.849Z,100093.81
2022-12-01T06:49:37.946Z,100089.22
2022-12-01T06:52:06.534Z,100053.31
2022-12-01T06:54:37.439Z,100092.91
2022-12-01T06:57:05.829Z,100095.25
2022-12-01T06:59:34.061Z,100092.94
2022-12-01T07:02:03.100Z,100086.31
2022-12-01T07:04:31.582Z,100082.50
2022-12-01T07:06:59.487Z,100085.19
2022-12-01T07:09:27.485Z,100084.19
2022-12-01T07:11:56.736Z,100084.63
2022-12-01T07:14:26.692Z,100087.06
2022-12-01T07:16:54.771Z,100088.69
2022-12-01T07:19:22.760Z,100080.34
2022-12-01T07:21:50.638Z,100094.56
2022-12-01T07:24:18.572Z,100086.38
2022-12-01T07:26:46.430Z,100075.78
2022-12-01T07:29:15.700Z,100090.38
2022-12-01T07:31:43.952Z,100090.50
2022-12-01T07:34:13.444Z,100091.44
2022-12-01T07:36:41.322Z,100098.91
2022-12-01T07:39:09.993Z,100097.00
2022-12-01T07:41:37.854Z,100096.25
2022-12-01T07:44:06.107Z,100084.09
2022-12-01T07:46:35.475Z,100097.00
2022-12-01T07:49:06.999Z,100072.97
2022-12-01T07:51:35.651Z,100099.19
2022-12-01T07:54:05.333Z,100084.25
2022-12-01T07:56:33.722Z,100095.63
2022-12-01T07:59:01.692Z,100098.06
2022-12-01T08:01:29.967Z,100103.69
2022-12-01T08:04:00.392Z,100105.84
2022-12-01T08:06:28.506Z,100103.63
2022-12-01T08:08:57.057Z,100105.84
2022-12-01T08:11:26.114Z,100106.69
2022-12-01T08:13:54.950Z,100106.53
2022-12-01T08:16:24.476Z,100099.75
2022-12-01T08:18:53.191Z,100105.94
2022-12-01T08:21:24.713Z,100105.38
2022-12-01T08:23:54.940Z,100088.31
2022-12-01T08:26:24.643Z,100101.44
2022-12-01T08:28:52.587Z,100100.44
2022-12-01T08:31:23.378Z,100108.22
2022-12-01T08:33:51.952Z,100101.78
2022-12-01T08:36:22.526Z,100097.44
2022-12-01T08:38:52.168Z,100095.16
2022-12-01T08:41:20.749Z,100096.97
2022-12-01T08:44:04.001Z,100086.44
2022-12-01T08:46:34.463Z,100081.19
2022-12-01T08:49:03.834Z,100087.28
2022-12-01T08:51:33.726Z,100087.91
2022-12-01T08:54:04.520Z,100076.22
2022-12-01T08:56:35.274Z,100082.72
2022-12-01T08:59:03.539Z,100087.78
2022-12-01T09:01:32.590Z,100081.81
2022-12-01T09:04:08.171Z,100078.16
2022-12-01T09:06:40.518Z,100065.63
2022-12-01T09:09:08.571Z,100049.56
2022-12-01T09:11:36.541Z,100068.53
2022-12-01T09:14:04.593Z,100065.63
2022-12-01T09:16:33.055Z,100066.91
2022-12-01T09:19:01.216Z,100062.75
2022-12-01T09:21:32.284Z,100059.31
2022-12-01T09:24:05.413Z,100062.75
2022-12-01T09:26:33.693Z,100058.81
2022-12-01T09:29:03.426Z,100059.88
2022-12-01T09:31:31.565Z,100056.97
2022-12-01T09:34:02.174Z,100049.16
2022-12-01T09:36:33.165Z,100052.69
2022-12-01T09:39:03.355Z,100045.72
2022-12-01T09:41:34.974Z,100035.16
2022-12-01T09:44:13.997Z,100049.34
2022-12-01T09:46:47.728Z,100044.16
2022-12-01T09:49:19.958Z,100047.66
2022-12-01T09:51:47.877Z,100030.84
2022-12-01T09:54:17.143Z,100038.06
2022-12-01T09:56:49.506Z,100033.78
2022-12-01T09:59:22.642Z,100039.81
2022-12-01T10:01:56.044Z,100032.94
2022-12-01T10:04:34.792Z,100028.44
2022-12-01T10:07:05.231Z,100034.28
2022-12-01T10:09:40.408Z,100039.56
2022-12-01T10:12:16.015Z,100037.16
2022-12-01T10:14:46.097Z,100033.38
2022-12-01T10:17:24.226Z,100035.72
2022-12-01T10:19:59.905Z,100024.81
2022-12-01T10:23:11.590Z,100035.56
2022-12-01T10:25:49.442Z,100026.09
2022-12-01T10:28:41.105Z,100022.22
2022-12-01T10:31:19.068Z,100028.69
2022-12-01T10:33:59.865Z,100022.00
2022-12-01T10:36:29.413Z,100005.41
2022-12-01T10:38:57.515Z,100025.34
2022-12-01T10:41:31.458Z,100015.94
2022-12-01T10:44:02.571Z,100018.63
2022-12-01T10:46:38.690Z,100012.28
2022-12-01T10:49:10.687Z,100014.38
2022-12-01T10:51:50.306Z,100010.84
2022-12-01T10:54:18.868Z,99988.97
2022-12-01T10:56:50.326Z,100004.81
2022-12-01T10:59:27.222Z,99982.81
2022-12-01T11:01:55.927Z,99998.22
2022-12-01T11:04:34.576Z,100002.78
2022-12-01T11:07:03.048Z,100000.97
2022-12-01T11:09:31.997Z,100005.25
2022-12-01T11:12:03.247Z,99980.63
2022-12-01T11:14:41.360Z,100002.97
2022-12-01T11:17:28.278Z,100005.31
2022-12-01T11:19:56.566Z,100006.06
2022-12-01T11:22:26.757Z,99994.28
2022-12-01T11:25:01.194Z,99971.31
2022-12-01T11:27:34.510Z,99992.25
2022-12-01T11:30:07.462Z,99991.94
2022-12-01T11:32:38.267Z,99994.41
2022-12-01T11:35:17.436Z,99988.81
2022-12-01T11:38:13.283Z,99989.56
2022-12-01T11:40:49.885Z,99980.78
2022-12-01T11:43:26.415Z,99985.47
2022-12-01T11:45:55.852Z,99993.94
2022-12-01T11:48:26.839Z,99970.63
2022-12-01T11:51:08.482Z,99988.13
2022-12-01T11:53:37.765Z,99992.84
2022-12-01T11:56:23.412Z,99993.22
2022-12-01T11:58:59.405Z,99978.94
2022-12-01T12:01:41.677Z,99986.31
2022-12-01T12:04:23.742Z,99991.56
2022-12-01T12:07:02.324Z,99990.06
2022-12-01T12:09:45.248Z,99986.88
2022-12-01T12:12:25.925Z,99971.81
2022-12-01T12:15:05.502Z,99991.06
2022-12-01T12:17:55.042Z,99985.03
2022-12-01T12:20:35.045Z,99978.19
2022-12-01T12:23:19.347Z,99982.53
2022-12-01T12:25:58.403Z,99983.28
2022-12-01T12:28:51.142Z,99967.56
2022-12-01T12:31:29.210Z,99979.75
2022-12-01T12:34:12.070Z,99985.63
2022-12-01T12:36:47.535Z,99977.78
2022-12-01T12:39:41.909Z,99975.19
2022-12-01T12:42:21.158Z,99971.72
2022-12-01T12:44:52.588Z,99958.69
2022-12-01T12:47:38.837Z,99966.59
2022-12-01T12:50:24.249Z,99969.88
2022-12-01T12:52:58.369Z,99972.88
2022-12-01T12:55:33.699Z,99970.63
2022-12-01T12:58:11.040Z,99972.31
2022-12-01T13:00:45.491Z,99961.41
2022-12-01T13:03:21.299Z,99967.88
2022-12-01T13:05:54.252Z,99959.72
2022-12-01T13:08:25.269Z,99965.25
2022-12-01T13:10:59.087Z,99961.41
2022-12-01T13:13:32.425Z,99953.75
2022-12-01T13:16:03.384Z,99961.16
2022-12-01T13:18:38.201Z,99955.66
2022-12-01T13:21:07.169Z,99954.34
2022-12-01T13:23:38.661Z,99963.25
2022-12-01T13:26:09.647Z,99965.38
2022-12-01T13:28:42.365Z,99962.94
2022-12-01T13:31:12.814Z,99965.97
2022-12-01T13:33:47.288Z,99971.38
2022-12-01T13:36:45.343Z,99967.13
2022-12-01T13:39:06.608Z,99964.63
2022-12-01T13:41:38.564Z,99975.31
2022-12-01T13:44:10.125Z,99970.81
2022-12-01T13:46:53.530Z,99969.22
2022-12-01T13:49:42.028Z,99973.59
2022-12-01T13:52:29.231Z,99965.84
2022-12-01T13:55:27.954Z,99977.16
2022-12-01T13:58:25.049Z,99973.00
2022-12-01T14:00:53.107Z,99971.16
2022-12-01T14:03:41.920Z,99960.84
2022-12-01T14:06:26.321Z,99955.91
2022-12-01T14:08:59.050Z,99983.78
2022-12-01T14:11:28.451Z,99984.72
2022-12-01T14:14:00.839Z,99974.66
2022-12-01T14:16:48.257Z,99976.00
2022-12-01T14:19:30.061Z,99968.47
2022-12-01T14:22:00.367Z,99974.16
2022-12-01T14:24:34.747Z,99978.69
2022-12-01T14:27:04.254Z,99986.63
2022-12-01T14:29:35.115Z,99987.47
2022-12-01T14:32:26.938Z,99982.28
2022-12-01T14:35:04.100Z,99985.63
2022-12-01T14:37:43.658Z,99979.44
2022-12-01T14:40:20.209Z,99978.19
2022-12-01T14:43:10.497Z,99982.19
2022-12-01T14:45:43.024Z,99983.28
2022-12-01T14:48:14.628Z,99977.50
2022-12-01T14:50:49.153Z,99971.53
2022-12-01T14:53:24.317Z,99987.72
2022-12-01T14:55:57.506Z,99988.41
2022-12-01T14:58:28.749Z,99991.56
2022-12-01T15:01:05.936Z,99996.94
2022-12-01T15:03:38.339Z,100001.72
2022-12-01T15:06:07.318Z,99995.59
2022-12-01T15:08:49.216Z,99991.50
2022-12-01T15:11:25.618Z,99990.72
2022-12-01T15:13:55.823Z,99984.28
2022-12-01T15:16:25.746Z,100001.13
2022-12-01T15:18:54.124Z,100004.97
2022-12-01T15:21:26.200Z,100003.22
2022-12-01T15:23:57.766Z,100004.38
2022-12-01T15:26:28.158Z,100002.13
2022-12-01T15:29:07.420Z,100003.72
2022-12-01T15:31:36.142Z,100005.06
2022-12-01T15:34:05.060Z,100008.00
2022-12-01T15:36:33.229Z,100005.06
2022-12-01T15:39:06.980Z,100008.81
2022-12-01T15:41:40.136Z,100014.28
2022-12-01T15:44:20.473Z,100011.16
2022-12-01T15:46:48.650Z,100020.06
2022-12-01T15:49:20.045Z,100014.19
2022-12-01T15:51:49.865Z,100001.94
2022-12-01T15:54:22.471Z,100013.69
2022-12-01T15:56:54.896Z,100010.59
2022-12-01T15:59:30.011Z,100013.94
2022-12-01T16:01:58.622Z,100021.16
2022-12-01T16:04:28.253Z,100016.84
2022-12-01T16:06:59.401Z,100027.38
2022-12-01T16:09:33.252Z,100026.38
2022-12-01T16:12:06.270Z,100028.06
2022-12-01T16:14:35.305Z,100023.09
2022-12-01T16:17:03.772Z,100024.50
2022-12-01T16:19:32.973Z,100028.47
2022-12-01T16:22:06.131Z,100025.97
2022-12-01T16:24:38.773Z,100031.44
2022-12-01T16:27:08.485Z,100034.94
2022-12-01T16:29:47.781Z,100036.94
2022-12-01T16:32:21.362Z,100038.19
2022-12-01T16:34:51.185Z,100031.72
2022-12-01T16:37:19.347Z,100039.28
2022-12-01T16:39:49.174Z,100029.03
2022-12-01T16:42:20.606Z,100041.34
2022-12-01T16:44:49.782Z,100039.41
2022-12-01T16:47:20.293Z,99994.28
2022-12-01T16:49:48.502Z,100049.66
2022-12-01T16:52:43.098Z,100049.88
2022-12-01T16:55:14.302Z,100024.97
2022-12-01T16:57:42.209Z,100050.06
2022-12-01T17:00:12.085Z,100054.00
2022-12-01T17:02:40.065Z,100043.22
2022-12-01T17:05:08.613Z,100062.31
2022-12-01T17:07:36.632Z,100054.03
2022-12-01T17:10:08.064Z,100059.94
2022-12-01T17:12:36.280Z,100060.09
2022-12-01T17:15:04.346Z,100064.59
2022-12-01T17:17:32.300Z,100064.41
2022-12-01T17:20:01.548Z,100079.53
2022-12-01T17:22:29.610Z,100077.91
2022-12-01T17:24:57.622Z,100081.84
2022-12-01T17:27:27.760Z,100075.31
2022-12-01T17:29:55.912Z,100083.84
2022-12-01T17:32:23.993Z,100080.03
2022-12-01T17:34:52.306Z,100070.88
2022-12-01T17:37:21.372Z,100088.59
2022-12-01T17:39:50.290Z,100088.75
2022-12-01T17:42:18.293Z,100088.28
2022-12-01T17:44:47.824Z,100088.28
2022-12-01T17:47:15.943Z,100084.31
2022-12-01T17:49:43.930Z,100095.63
2022-12-01T17:52:11.912Z,100082.59
2022-12-01T17:54:39.866Z,100080.75
2022-12-01T17:57:10.461Z,100075.72
2022-12-01T17:59:38.429Z,100076.75
2022-12-01T18:02:12.910Z,100081.50
2022-12-01T18:04:40.904Z,100080.59
2022-12-01T18:07:08.817Z,100079.63
2022-12-01T18:09:36.832Z,100078.91
2022-12-01T18:12:05.828Z,100068.50
2022-12-01T18:14:34.638Z,100066.53
2022-12-01T18:17:04.054Z,100078.53
2022-12-01T18:19:33.981Z,100073.81
2022-12-01T18:22:02.293Z,100069.19
2022-12-01T18:24:30.134Z,100075.00
2022-12-01T18:26:58.134Z,100070.63
2022-12-01T18:29:28.602Z,100074.50
2022-12-01T18:31:56.995Z,100075.25
2022-12-01T18:34:25.622Z,100076.16
2022-12-01T18:36:54.852Z,100070.97
2022-12-01T18:39:22.802Z,100078.19
2022-12-01T18:41:50.894Z,100077.28
2022-12-01T18:44:18.906Z,100079.03
2022-12-01T18:46:47.110Z,100084.06
2022-12-01T18:49:15.241Z,100082.84
2022-12-01T18:51:43.522Z,100089.72
2022-12-01T18:54:15.032Z,100096.28
2022-12-01T18:56:43.354Z,100089.56
2022-12-01T18:59:12.920Z,100098.44
2022-12-01T19:01:44.222Z,100092.41
2022-12-01T19:04:12.438Z,100093.56
2022-12-01T19:06:42.435Z,100101.25
2022-12-01T19:09:13.916Z,100105.47
2022-12-01T19:11:42.480Z,100110.09
2022-12-01T19:14:14.546Z,100107.03
2022-12-01T19:16:44.812Z,100106.88
2022-12-01T19:19:12.862Z,100105.13
2022-12-01T19:21:40.848Z,100114.75
2022-12-01T19:24:09.097Z,100109.56
2022-12-01T19:26:38.726Z,100113.66
2022-12-01T19:29:06.675Z,100111.78
2022-12-01T19:31:34.746Z,100098.75
2022-12-01T19:34:04.490Z,100122.78
2022-12-01T19:36:32.545Z,100088.75
2022-12-01T19:39:06.087Z,100110.78
2022-12-01T19:41:35.532Z,100107.00
2022-12-01T19:44:05.078Z,100112.50
2022-12-01T19:46:33.082Z,100114.69
2022-12-01T19:49:02.542Z,100114.16
2022-12-01T19:51:35.070Z,100120.28
2022-12-01T19:54:03.585Z,100122.00
2022-12-01T19:56:31.639Z,100123.84
2022-12-01T19:59:00.335Z,100119.88
2022-12-01T20:01:29.848Z,100113.47
2022-12-01T20:03:57.872Z,100114.81
2022-12-01T20:06:27.844Z,100110.09
2022-12-01T20:08:59.880Z,100118.97
2022-12-01T20:11:29.704Z,100110.59
2022-12-01T20:13:57.662Z,100115.00
2022-12-01T20:16:28.123Z,100117.75
2022-12-01T20:19:01.667Z,100111.88
2022-12-01T20:21:31.632Z,100122.00
2022-12-01T20:24:01.125Z,100114.69
2022-12-01T20:26:31.063Z,100128.78
2022-12-01T20:29:01.449Z,100130.22
2022-12-01T20:31:30.880Z,100132.50
2022-12-01T20:34:05.532Z,100123.97
2022-12-01T20:36:33.465Z,100128.88
2022-12-01T20:39:01.415Z,100135.28
2022-12-01T20:41:29.342Z,100135.75
2022-12-01T20:44:00.100Z,100134.00
2022-12-01T20:46:30.444Z,100132.38
2022-12-01T20:48:58.673Z,100141.69
2022-12-01T20:51:28.040Z,100134.66
2022-12-01T20:54:26.390Z,100135.59
2022-12-01T20:56:43.899Z,100133.47
2022-12-01T20:59:12.236Z,100128.66
2022-12-01T21:01:40.316Z,100129.41
2022-12-01T21:04:08.676Z,100136.59
2022-12-01T21:06:38.072Z,100148.72
2022-12-01T21:09:07.471Z,100135.59
2022-12-01T21:12:00.829Z,100138.34
2022-12-01T21:14:33.786Z,100143.84
2022-12-01T21:17:09.682Z,100144.75
2022-12-01T21:19:44.960Z,100142.06
2022-12-01T21:22:14.706Z,100145.69
2022-12-01T21:24:44.014Z,100147.97
2022-12-01T21:27:18.476Z,100158.56
2022-12-01T21:29:48.194Z,100152.00
2022-12-01T21:32:20.101Z,100160.00
2022-12-01T21:34:49.549Z,100166.78
2022-12-01T21:37:22.644Z,100172.81
2022-12-01T21:39:51.836Z,100171.44
2022-12-01T21:42:22.270Z,100168.25
2022-12-01T21:44:50.961Z,100176.16
2022-12-01T21:47:21.963Z,100170.91
2022-12-01T21:49:53.074Z,100180.53
2022-12-01T21:52:25.076Z,100151.38
2022-12-01T21:54:53.233Z,100176.75
2022-12-01T21:57:43.395Z,100179.69
2022-12-01T22:00:29.366Z,100178.94
2022-12-01T22:03:22.464Z,100182.34
2022-12-01T22:06:14.025Z,100169.13
2022-12-01T22:08:45.973Z,100176.50
2022-12-01T22:11:18.676Z,100179.50
2022-12-01T22:13:48.464Z,100177.16
2022-12-01T22:16:21.253Z,100181.69
2022-12-01T22:18:52.424Z,100164.44
2022-12-01T22:21:31.609Z,100174.38
2022-12-01T22:24:16.525Z,100123.94
2022-12-01T22:26:47.762Z,100173.38
2022-12-01T22:29:24.614Z,100172.81
2022-12-01T22:31:52.554Z,100167.34
2022-12-01T22:34:21.486Z,100166.03
2022-12-01T22:36:49.669Z,100166.03
2022-12-01T22:39:30.792Z,100141.69
2022-12-01T22:42:01.156Z,100155.88
2022-12-01T22:44:31.667Z,100124.94
2022-12-01T22:47:03.153Z,100155.44
2022-12-01T22:49:31.600Z,100148.72
2022-12-01T22:52:02.363Z,100153.00
2022-12-01T22:54:35.145Z,100141.41
2022-12-01T22:57:33.110Z,100149.81
2022-12-01T23:00:14.662Z,100137.75
2022-12-01T23:02:42.948Z,100140.25
2022-12-01T23:05:22.423Z,100144.16
2022-12-01T23:07:51.563Z,100152.59
2022-12-01T23:10:22.936Z,100146.50
2022-12-01T23:12:52.759Z,100149.09
2022-12-01T23:15:32.172Z,100035.16
2022-12-01T23:18:06.704Z,100142.16
2022-12-01T23:20:35.454Z,100144.28
2022-12-01T23:23:05.097Z,100141.84
2022-12-01T23:25:35.641Z,100142.06
2022-12-01T23:28:06.719Z,100141.47
2022-12-01T23:30:35.948Z,100144.28
2022-12-01T23:33:12.152Z,100143.84
2022-12-01T23:35:46.589Z,100130.19
2022-12-01T23:38:20.954Z,100135.75
2022-12-01T23:40:50.932Z,100115.56
2022-12-01T23:43:24.530Z,100149.66
2022-12-01T23:46:02.919Z,100151.63
2022-12-01T23:48:35.118Z,100135.91
2022-12-01T23:51:03.278Z,100152.44
2022-12-01T23:53:32.928Z,100152.59
2022-12-01T23:56:07.225Z,100158.63
2022-12-01T23:58:35.715Z,100134.16
